Central City, Missouri
Current Conditions -  °F | °C
As of 2:53 AM on Saturday 29 Nov 2014 (Local Time) from KJLN Reporting Station
Clear Clear  
Wind Chill: 55°   Ceiling: Unl
Heat Index: 55°   Visibility: 10mi
Dew Point: 46°   Wind: 15mph
Humidity: 72%   Direction: 190°S
Pressure: 29.79"   Gusts: NA
Location:  37.1074°N, 94.5218°W
Report Text: KJLN 290853Z AUTO 19013KT 10SM CLR 13/08 A2979 RMK AO2 SLP082 T01280078 56013
Loading
Personal Weather Stations






























Interactive Weather Map New forecast layout! Learn more

10-Day Weather Forecast

Advertisements
Track Severe Weather on mobile